sensor_id;sensor_type;location;lat;lon;timestamp;P1;durP1;ratioP1;P2;durP2;ratioP2
47715;SDS011;33476;50.984;3.538;2024-02-21T00:01:46;1.88;;;0.65;;
47715;SDS011;33476;50.984;3.538;2024-02-21T00:04:11;4.43;;;0.90;;
47715;SDS011;33476;50.984;3.538;2024-02-21T00:06:37;5.15;;;0.95;;
47715;SDS011;33476;50.984;3.538;2024-02-21T00:09:02;5.43;;;0.70;;
47715;SDS011;33476;50.984;3.538;2024-02-21T00:11:28;2.88;;;0.68;;
47715;SDS011;33476;50.984;3.538;2024-02-21T00:13:53;3.42;;;1.08;;
47715;SDS011;33476;50.984;3.538;2024-02-21T00:16:18;3.13;;;0.85;;
47715;SDS011;33476;50.984;3.538;2024-02-21T00:18:45;4.63;;;0.95;;
47715;SDS011;33476;50.984;3.538;2024-02-21T00:21:10;2.72;;;0.68;;
47715;SDS011;33476;50.984;3.538;2024-02-21T00:23:40;4.45;;;0.93;;
47715;SDS011;33476;50.984;3.538;2024-02-21T00:26:06;3.10;;;0.93;;
47715;SDS011;33476;50.984;3.538;2024-02-21T00:28:32;5.15;;;0.77;;
47715;SDS011;33476;50.984;3.538;2024-02-21T00:30:58;3.95;;;1.17;;
47715;SDS011;33476;50.984;3.538;2024-02-21T00:33:23;3.60;;;1.15;;
47715;SDS011;33476;50.984;3.538;2024-02-21T00:35:48;2.85;;;1.50;;
47715;SDS011;33476;50.984;3.538;2024-02-21T00:38:14;4.45;;;1.05;;
47715;SDS011;33476;50.984;3.538;2024-02-21T00:40:39;4.05;;;1.73;;
47715;SDS011;33476;50.984;3.538;2024-02-21T00:43:04;5.72;;;2.08;;
47715;SDS011;33476;50.984;3.538;2024-02-21T00:45:30;6.28;;;2.42;;
47715;SDS011;33476;50.984;3.538;2024-02-21T00:47:55;8.15;;;2.75;;
47715;SDS011;33476;50.984;3.538;2024-02-21T00:50:20;8.52;;;3.10;;
47715;SDS011;33476;50.984;3.538;2024-02-21T00:52:46;7.97;;;2.70;;
47715;SDS011;33476;50.984;3.538;2024-02-21T00:55:11;5.85;;;3.00;;
47715;SDS011;33476;50.984;3.538;2024-02-21T00:57:36;6.70;;;2.97;;
47715;SDS011;33476;50.984;3.538;2024-02-21T01:00:02;10.88;;;2.83;;
47715;SDS011;33476;50.984;3.538;2024-02-21T01:02:28;10.73;;;3.15;;
47715;SDS011;33476;50.984;3.538;2024-02-21T01:04:56;9.88;;;2.80;;
47715;SDS011;33476;50.984;3.538;2024-02-21T01:07:22;9.13;;;3.40;;
47715;SDS011;33476;50.984;3.538;2024-02-21T01:13:09;13.18;;;3.10;;
47715;SDS011;33476;50.984;3.538;2024-02-21T01:15:34;9.18;;;3.13;;
47715;SDS011;33476;50.984;3.538;2024-02-21T01:18:00;11.57;;;3.78;;
47715;SDS011;33476;50.984;3.538;2024-02-21T01:20:26;12.68;;;4.45;;
47715;SDS011;33476;50.984;3.538;2024-02-21T01:22:51;10.98;;;3.35;;
47715;SDS011;33476;50.984;3.538;2024-02-21T01:25:16;13.48;;;3.40;;
47715;SDS011;33476;50.984;3.538;2024-02-21T01:27:42;11.68;;;3.30;;
47715;SDS011;33476;50.984;3.538;2024-02-21T01:30:07;11.50;;;4.07;;
47715;SDS011;33476;50.984;3.538;2024-02-21T01:32:33;11.05;;;3.35;;
47715;SDS011;33476;50.984;3.538;2024-02-21T01:34:59;14.93;;;3.50;;
47715;SDS011;33476;50.984;3.538;2024-02-21T01:37:24;15.40;;;3.67;;
47715;SDS011;33476;50.984;3.538;2024-02-21T01:39:50;14.52;;;4.28;;
47715;SDS011;33476;50.984;3.538;2024-02-21T01:42:15;12.80;;;4.00;;
47715;SDS011;33476;50.984;3.538;2024-02-21T01:44:41;12.40;;;3.80;;
47715;SDS011;33476;50.984;3.538;2024-02-21T01:47:06;10.68;;;3.10;;
47715;SDS011;33476;50.984;3.538;2024-02-21T01:49:32;18.08;;;3.80;;
47715;SDS011;33476;50.984;3.538;2024-02-21T01:51:58;13.73;;;3.80;;
47715;SDS011;33476;50.984;3.538;2024-02-21T01:54:24;14.07;;;3.35;;
47715;SDS011;33476;50.984;3.538;2024-02-21T01:56:53;20.05;;;3.42;;
47715;SDS011;33476;50.984;3.538;2024-02-21T01:59:19;14.10;;;3.45;;
47715;SDS011;33476;50.984;3.538;2024-02-21T02:01:46;13.70;;;2.97;;
47715;SDS011;33476;50.984;3.538;2024-02-21T02:04:12;15.55;;;2.88;;
47715;SDS011;33476;50.984;3.538;2024-02-21T02:06:38;20.25;;;3.80;;
47715;SDS011;33476;50.984;3.538;2024-02-21T02:09:04;11.48;;;3.13;;
47715;SDS011;33476;50.984;3.538;2024-02-21T02:11:31;16.92;;;3.00;;
47715;SDS011;33476;50.984;3.538;2024-02-21T02:13:57;12.07;;;3.08;;
47715;SDS011;33476;50.984;3.538;2024-02-21T02:16:22;10.93;;;3.08;;
47715;SDS011;33476;50.984;3.538;2024-02-21T02:18:47;17.25;;;3.58;;
47715;SDS011;33476;50.984;3.538;2024-02-21T02:21:27;10.68;;;2.88;;
47715;SDS011;33476;50.984;3.538;2024-02-21T02:23:54;10.07;;;3.03;;
47715;SDS011;33476;50.984;3.538;2024-02-21T02:26:20;19.90;;;3.45;;
47715;SDS011;33476;50.984;3.538;2024-02-21T02:28:45;14.32;;;3.33;;
47715;SDS011;33476;50.984;3.538;2024-02-21T02:31:11;13.27;;;3.05;;
47715;SDS011;33476;50.984;3.538;2024-02-21T02:33:36;14.23;;;3.08;;
47715;SDS011;33476;50.984;3.538;2024-02-21T02:36:01;13.48;;;3.20;;
47715;SDS011;33476;50.984;3.538;2024-02-21T02:38:27;16.95;;;3.25;;
47715;SDS011;33476;50.984;3.538;2024-02-21T02:40:52;14.48;;;3.00;;
47715;SDS011;33476;50.984;3.538;2024-02-21T02:43:17;16.90;;;2.83;;
47715;SDS011;33476;50.984;3.538;2024-02-21T02:45:43;11.73;;;3.15;;
47715;SDS011;33476;50.984;3.538;2024-02-21T02:48:08;15.82;;;4.07;;
47715;SDS011;33476;50.984;3.538;2024-02-21T02:50:33;11.57;;;2.75;;
47715;SDS011;33476;50.984;3.538;2024-02-21T02:52:59;12.55;;;3.08;;
47715;SDS011;33476;50.984;3.538;2024-02-21T02:55:24;16.80;;;4.10;;
47715;SDS011;33476;50.984;3.538;2024-02-21T02:57:51;15.07;;;4.15;;
47715;SDS011;33476;50.984;3.538;2024-02-21T03:00:16;13.43;;;3.67;;
47715;SDS011;33476;50.984;3.538;2024-02-21T03:02:43;15.65;;;4.05;;
47715;SDS011;33476;50.984;3.538;2024-02-21T03:05:15;16.05;;;3.85;;
47715;SDS011;33476;50.984;3.538;2024-02-21T03:07:41;15.32;;;3.53;;
47715;SDS011;33476;50.984;3.538;2024-02-21T03:10:08;11.85;;;3.20;;
47715;SDS011;33476;50.984;3.538;2024-02-21T03:12:34;13.25;;;3.03;;
47715;SDS011;33476;50.984;3.538;2024-02-21T03:14:59;14.50;;;4.18;;
47715;SDS011;33476;50.984;3.538;2024-02-21T03:17:24;11.57;;;3.20;;
47715;SDS011;33476;50.984;3.538;2024-02-21T03:19:52;13.32;;;3.22;;
47715;SDS011;33476;50.984;3.538;2024-02-21T03:22:17;12.82;;;3.72;;
47715;SDS011;33476;50.984;3.538;2024-02-21T03:24:43;15.50;;;3.50;;
47715;SDS011;33476;50.984;3.538;2024-02-21T03:27:08;18.08;;;3.97;;
47715;SDS011;33476;50.984;3.538;2024-02-21T03:29:34;16.20;;;3.42;;
47715;SDS011;33476;50.984;3.538;2024-02-21T03:31:59;16.58;;;3.40;;
47715;SDS011;33476;50.984;3.538;2024-02-21T03:34:24;8.25;;;2.83;;
47715;SDS011;33476;50.984;3.538;2024-02-21T03:36:50;12.85;;;3.42;;
47715;SDS011;33476;50.984;3.538;2024-02-21T03:39:15;16.35;;;3.80;;
47715;SDS011;33476;50.984;3.538;2024-02-21T03:41:40;17.23;;;3.60;;
47715;SDS011;33476;50.984;3.538;2024-02-21T03:44:06;13.45;;;3.75;;
47715;SDS011;33476;50.984;3.538;2024-02-21T03:46:31;14.32;;;3.58;;
47715;SDS011;33476;50.984;3.538;2024-02-21T03:48:56;12.60;;;3.78;;
47715;SDS011;33476;50.984;3.538;2024-02-21T03:51:22;13.55;;;3.28;;
47715;SDS011;33476;50.984;3.538;2024-02-21T03:53:47;17.85;;;4.10;;
47715;SDS011;33476;50.984;3.538;2024-02-21T03:56:13;13.13;;;3.60;;
47715;SDS011;33476;50.984;3.538;2024-02-21T03:58:38;11.77;;;3.08;;
47715;SDS011;33476;50.984;3.538;2024-02-21T04:01:03;10.85;;;3.28;;
47715;SDS011;33476;50.984;3.538;2024-02-21T04:03:29;17.67;;;3.60;;
47715;SDS011;33476;50.984;3.538;2024-02-21T04:05:55;10.90;;;4.00;;
47715;SDS011;33476;50.984;3.538;2024-02-21T04:08:21;14.00;;;3.55;;
47715;SDS011;33476;50.984;3.538;2024-02-21T04:10:47;14.40;;;3.53;;
47715;SDS011;33476;50.984;3.538;2024-02-21T04:13:12;17.58;;;3.92;;
47715;SDS011;33476;50.984;3.538;2024-02-21T04:15:38;12.55;;;3.75;;
47715;SDS011;33476;50.984;3.538;2024-02-21T04:18:03;13.13;;;3.92;;
47715;SDS011;33476;50.984;3.538;2024-02-21T04:20:28;12.52;;;3.90;;
47715;SDS011;33476;50.984;3.538;2024-02-21T04:22:54;14.10;;;4.15;;
47715;SDS011;33476;50.984;3.538;2024-02-21T04:25:20;12.27;;;4.13;;
47715;SDS011;33476;50.984;3.538;2024-02-21T04:27:45;12.07;;;4.13;;
47715;SDS011;33476;50.984;3.538;2024-02-21T04:30:11;11.90;;;4.28;;
47715;SDS011;33476;50.984;3.538;2024-02-21T04:32:37;10.10;;;3.92;;
47715;SDS011;33476;50.984;3.538;2024-02-21T04:35:03;18.25;;;5.00;;
47715;SDS011;33476;50.984;3.538;2024-02-21T04:37:29;12.35;;;4.20;;
47715;SDS011;33476;50.984;3.538;2024-02-21T04:39:54;16.80;;;4.35;;
47715;SDS011;33476;50.984;3.538;2024-02-21T04:42:19;12.57;;;3.90;;
47715;SDS011;33476;50.984;3.538;2024-02-21T04:44:45;13.80;;;4.38;;
47715;SDS011;33476;50.984;3.538;2024-02-21T04:47:10;18.20;;;4.60;;
47715;SDS011;33476;50.984;3.538;2024-02-21T04:49:35;13.38;;;4.13;;
47715;SDS011;33476;50.984;3.538;2024-02-21T04:52:01;16.77;;;4.10;;
47715;SDS011;33476;50.984;3.538;2024-02-21T04:54:26;12.35;;;3.95;;
47715;SDS011;33476;50.984;3.538;2024-02-21T04:56:52;10.90;;;3.80;;
47715;SDS011;33476;50.984;3.538;2024-02-21T04:59:17;11.65;;;4.22;;
47715;SDS011;33476;50.984;3.538;2024-02-21T05:01:43;13.48;;;4.05;;
47715;SDS011;33476;50.984;3.538;2024-02-21T05:04:08;12.98;;;3.97;;
47715;SDS011;33476;50.984;3.538;2024-02-21T05:06:40;14.27;;;4.53;;
47715;SDS011;33476;50.984;3.538;2024-02-21T05:09:09;10.48;;;4.70;;
47715;SDS011;33476;50.984;3.538;2024-02-21T05:11:35;15.07;;;4.25;;
47715;SDS011;33476;50.984;3.538;2024-02-21T05:14:01;10.43;;;4.25;;
47715;SDS011;33476;50.984;3.538;2024-02-21T05:16:26;12.73;;;4.25;;
47715;SDS011;33476;50.984;3.538;2024-02-21T05:18:52;12.07;;;4.22;;
47715;SDS011;33476;50.984;3.538;2024-02-21T05:21:17;14.10;;;4.70;;
47715;SDS011;33476;50.984;3.538;2024-02-21T05:23:44;13.70;;;4.47;;
47715;SDS011;33476;50.984;3.538;2024-02-21T05:26:09;14.90;;;4.93;;
47715;SDS011;33476;50.984;3.538;2024-02-21T05:28:34;14.00;;;4.55;;
47715;SDS011;33476;50.984;3.538;2024-02-21T05:31:00;13.27;;;4.22;;
47715;SDS011;33476;50.984;3.538;2024-02-21T05:33:25;9.18;;;4.15;;
47715;SDS011;33476;50.984;3.538;2024-02-21T05:35:51;10.10;;;4.25;;
47715;SDS011;33476;50.984;3.538;2024-02-21T05:38:16;11.00;;;4.15;;
47715;SDS011;33476;50.984;3.538;2024-02-21T05:40:42;8.98;;;4.57;;
47715;SDS011;33476;50.984;3.538;2024-02-21T05:43:09;10.60;;;4.28;;
47715;SDS011;33476;50.984;3.538;2024-02-21T05:45:34;9.73;;;4.22;;
47715;SDS011;33476;50.984;3.538;2024-02-21T05:48:00;11.82;;;4.28;;
47715;SDS011;33476;50.984;3.538;2024-02-21T05:50:25;9.52;;;4.38;;
47715;SDS011;33476;50.984;3.538;2024-02-21T05:52:53;9.65;;;4.03;;
47715;SDS011;33476;50.984;3.538;2024-02-21T05:55:19;13.60;;;4.68;;
47715;SDS011;33476;50.984;3.538;2024-02-21T05:57:45;17.83;;;4.88;;
47715;SDS011;33476;50.984;3.538;2024-02-21T06:00:10;12.68;;;4.50;;
47715;SDS011;33476;50.984;3.538;2024-02-21T06:02:36;14.25;;;4.50;;
47715;SDS011;33476;50.984;3.538;2024-02-21T06:05:01;12.40;;;4.57;;
47715;SDS011;33476;50.984;3.538;2024-02-21T06:07:26;14.50;;;4.97;;
47715;SDS011;33476;50.984;3.538;2024-02-21T06:09:52;9.65;;;4.47;;
47715;SDS011;33476;50.984;3.538;2024-02-21T06:12:17;11.82;;;4.68;;
47715;SDS011;33476;50.984;3.538;2024-02-21T06:14:43;16.98;;;4.75;;
47715;SDS011;33476;50.984;3.538;2024-02-21T06:17:08;11.20;;;4.15;;
47715;SDS011;33476;50.984;3.538;2024-02-21T06:19:33;12.20;;;4.57;;
47715;SDS011;33476;50.984;3.538;2024-02-21T06:21:59;10.73;;;5.03;;
47715;SDS011;33476;50.984;3.538;2024-02-21T06:24:24;12.65;;;4.32;;
47715;SDS011;33476;50.984;3.538;2024-02-21T06:26:49;14.55;;;5.22;;
47715;SDS011;33476;50.984;3.538;2024-02-21T06:29:15;13.23;;;4.57;;
47715;SDS011;33476;50.984;3.538;2024-02-21T06:31:40;10.65;;;4.57;;
47715;SDS011;33476;50.984;3.538;2024-02-21T06:34:06;10.85;;;4.82;;
47715;SDS011;33476;50.984;3.538;2024-02-21T06:36:31;14.88;;;4.90;;
47715;SDS011;33476;50.984;3.538;2024-02-21T06:38:56;11.48;;;4.30;;
47715;SDS011;33476;50.984;3.538;2024-02-21T06:41:22;10.50;;;4.50;;
47715;SDS011;33476;50.984;3.538;2024-02-21T06:43:47;8.75;;;4.13;;
47715;SDS011;33476;50.984;3.538;2024-02-21T06:46:26;12.05;;;4.95;;
47715;SDS011;33476;50.984;3.538;2024-02-21T06:48:53;8.80;;;4.80;;
47715;SDS011;33476;50.984;3.538;2024-02-21T06:51:19;12.50;;;4.97;;
47715;SDS011;33476;50.984;3.538;2024-02-21T06:53:44;9.98;;;4.95;;
47715;SDS011;33476;50.984;3.538;2024-02-21T06:56:10;12.90;;;4.90;;
47715;SDS011;33476;50.984;3.538;2024-02-21T06:58:35;13.55;;;4.65;;
47715;SDS011;33476;50.984;3.538;2024-02-21T07:01:01;14.00;;;4.65;;
47715;SDS011;33476;50.984;3.538;2024-02-21T07:03:26;8.45;;;4.90;;
47715;SDS011;33476;50.984;3.538;2024-02-21T07:05:52;10.80;;;5.45;;
47715;SDS011;33476;50.984;3.538;2024-02-21T07:08:17;11.63;;;5.22;;
47715;SDS011;33476;50.984;3.538;2024-02-21T07:10:42;12.52;;;4.93;;
47715;SDS011;33476;50.984;3.538;2024-02-21T07:13:08;11.18;;;4.55;;
47715;SDS011;33476;50.984;3.538;2024-02-21T07:15:33;11.25;;;5.28;;
47715;SDS011;33476;50.984;3.538;2024-02-21T07:17:58;12.43;;;5.00;;
47715;SDS011;33476;50.984;3.538;2024-02-21T07:20:24;11.77;;;5.25;;
47715;SDS011;33476;50.984;3.538;2024-02-21T07:22:50;10.57;;;5.55;;
47715;SDS011;33476;50.984;3.538;2024-02-21T07:25:15;7.38;;;5.13;;
47715;SDS011;33476;50.984;3.538;2024-02-21T07:27:40;10.57;;;5.45;;
47715;SDS011;33476;50.984;3.538;2024-02-21T07:30:07;10.93;;;5.20;;
47715;SDS011;33476;50.984;3.538;2024-02-21T07:32:32;12.68;;;5.45;;
47715;SDS011;33476;50.984;3.538;2024-02-21T07:34:57;10.98;;;5.15;;
47715;SDS011;33476;50.984;3.538;2024-02-21T07:37:23;13.82;;;5.53;;
47715;SDS011;33476;50.984;3.538;2024-02-21T07:39:48;12.00;;;5.70;;
47715;SDS011;33476;50.984;3.538;2024-02-21T07:42:13;11.95;;;5.80;;
47715;SDS011;33476;50.984;3.538;2024-02-21T07:44:40;12.25;;;5.82;;
47715;SDS011;33476;50.984;3.538;2024-02-21T07:47:05;10.85;;;5.25;;
47715;SDS011;33476;50.984;3.538;2024-02-21T07:49:32;11.70;;;4.97;;
47715;SDS011;33476;50.984;3.538;2024-02-21T07:51:57;14.02;;;5.88;;
47715;SDS011;33476;50.984;3.538;2024-02-21T07:54:22;10.73;;;5.97;;
47715;SDS011;33476;50.984;3.538;2024-02-21T07:56:48;13.52;;;6.03;;
47715;SDS011;33476;50.984;3.538;2024-02-21T07:59:13;7.00;;;4.60;;
47715;SDS011;33476;50.984;3.538;2024-02-21T08:01:39;11.27;;;5.30;;
47715;SDS011;33476;50.984;3.538;2024-02-21T08:04:04;12.45;;;5.30;;
47715;SDS011;33476;50.984;3.538;2024-02-21T08:06:30;10.10;;;4.40;;
47715;SDS011;33476;50.984;3.538;2024-02-21T08:08:55;11.82;;;4.85;;
47715;SDS011;33476;50.984;3.538;2024-02-21T08:11:22;13.50;;;5.85;;
47715;SDS011;33476;50.984;3.538;2024-02-21T08:13:47;9.98;;;4.80;;
47715;SDS011;33476;50.984;3.538;2024-02-21T08:16:13;13.65;;;5.20;;
47715;SDS011;33476;50.984;3.538;2024-02-21T08:18:38;10.25;;;5.22;;
47715;SDS011;33476;50.984;3.538;2024-02-21T08:21:03;12.88;;;5.57;;
47715;SDS011;33476;50.984;3.538;2024-02-21T08:23:29;10.75;;;5.18;;
47715;SDS011;33476;50.984;3.538;2024-02-21T08:25:54;13.88;;;4.70;;
47715;SDS011;33476;50.984;3.538;2024-02-21T08:28:20;10.02;;;4.38;;
47715;SDS011;33476;50.984;3.538;2024-02-21T08:30:45;11.32;;;5.18;;
47715;SDS011;33476;50.984;3.538;2024-02-21T08:33:13;15.27;;;4.35;;
47715;SDS011;33476;50.984;3.538;2024-02-21T08:35:40;12.07;;;5.18;;
47715;SDS011;33476;50.984;3.538;2024-02-21T08:38:05;10.82;;;4.72;;
47715;SDS011;33476;50.984;3.538;2024-02-21T08:40:30;15.23;;;4.90;;
47715;SDS011;33476;50.984;3.538;2024-02-21T08:42:56;10.48;;;5.15;;
47715;SDS011;33476;50.984;3.538;2024-02-21T08:45:21;13.45;;;5.20;;
47715;SDS011;33476;50.984;3.538;2024-02-21T08:47:46;10.98;;;4.97;;
47715;SDS011;33476;50.984;3.538;2024-02-21T08:50:12;11.07;;;5.03;;
47715;SDS011;33476;50.984;3.538;2024-02-21T08:52:37;14.40;;;5.00;;
47715;SDS011;33476;50.984;3.538;2024-02-21T08:55:02;11.00;;;5.03;;
47715;SDS011;33476;50.984;3.538;2024-02-21T08:57:28;14.82;;;5.15;;
47715;SDS011;33476;50.984;3.538;2024-02-21T08:59:54;14.25;;;5.60;;
47715;SDS011;33476;50.984;3.538;2024-02-21T09:02:19;11.05;;;5.28;;
47715;SDS011;33476;50.984;3.538;2024-02-21T09:04:44;11.95;;;5.38;;
47715;SDS011;33476;50.984;3.538;2024-02-21T09:07:10;10.80;;;4.45;;
47715;SDS011;33476;50.984;3.538;2024-02-21T09:09:36;15.88;;;5.30;;
47715;SDS011;33476;50.984;3.538;2024-02-21T09:12:03;13.15;;;4.95;;
47715;SDS011;33476;50.984;3.538;2024-02-21T09:14:33;13.00;;;5.28;;
47715;SDS011;33476;50.984;3.538;2024-02-21T09:16:59;16.63;;;4.85;;
47715;SDS011;33476;50.984;3.538;2024-02-21T09:19:24;14.45;;;4.35;;
47715;SDS011;33476;50.984;3.538;2024-02-21T09:21:50;13.30;;;4.20;;
47715;SDS011;33476;50.984;3.538;2024-02-21T09:24:15;8.85;;;3.75;;
47715;SDS011;33476;50.984;3.538;2024-02-21T09:26:41;13.57;;;4.22;;
47715;SDS011;33476;50.984;3.538;2024-02-21T09:29:06;10.02;;;4.20;;
47715;SDS011;33476;50.984;3.538;2024-02-21T09:31:32;9.88;;;4.10;;
47715;SDS011;33476;50.984;3.538;2024-02-21T09:33:58;11.70;;;4.20;;
47715;SDS011;33476;50.984;3.538;2024-02-21T09:36:23;8.38;;;3.95;;
47715;SDS011;33476;50.984;3.538;2024-02-21T09:38:49;11.88;;;4.22;;
47715;SDS011;33476;50.984;3.538;2024-02-21T09:41:15;10.27;;;4.10;;
47715;SDS011;33476;50.984;3.538;2024-02-21T09:43:45;10.52;;;4.63;;
47715;SDS011;33476;50.984;3.538;2024-02-21T09:46:17;6.93;;;3.78;;
47715;SDS011;33476;50.984;3.538;2024-02-21T09:51:20;10.30;;;4.53;;
47715;SDS011;33476;50.984;3.538;2024-02-21T09:53:47;9.50;;;4.32;;
47715;SDS011;33476;50.984;3.538;2024-02-21T09:56:13;11.65;;;3.70;;
47715;SDS011;33476;50.984;3.538;2024-02-21T09:58:39;6.90;;;3.75;;
47715;SDS011;33476;50.984;3.538;2024-02-21T10:01:06;13.63;;;3.95;;
47715;SDS011;33476;50.984;3.538;2024-02-21T10:03:32;8.93;;;4.05;;
47715;SDS011;33476;50.984;3.538;2024-02-21T10:05:58;8.52;;;3.70;;
47715;SDS011;33476;50.984;3.538;2024-02-21T10:08:25;6.78;;;3.30;;
47715;SDS011;33476;50.984;3.538;2024-02-21T10:10:51;10.95;;;3.40;;
47715;SDS011;33476;50.984;3.538;2024-02-21T10:13:27;12.00;;;2.85;;
47715;SDS011;33476;50.984;3.538;2024-02-21T10:16:07;12.10;;;3.38;;
47715;SDS011;33476;50.984;3.538;2024-02-21T10:18:33;8.77;;;3.40;;
47715;SDS011;33476;50.984;3.538;2024-02-21T10:21:03;9.90;;;3.53;;
47715;SDS011;33476;50.984;3.538;2024-02-21T10:23:29;17.57;;;3.70;;
47715;SDS011;33476;50.984;3.538;2024-02-21T10:26:07;8.40;;;3.25;;
47715;SDS011;33476;50.984;3.538;2024-02-21T10:28:32;7.10;;;3.35;;
47715;SDS011;33476;50.984;3.538;2024-02-21T10:30:58;5.57;;;2.72;;
47715;SDS011;33476;50.984;3.538;2024-02-21T10:33:23;11.88;;;3.20;;
47715;SDS011;33476;50.984;3.538;2024-02-21T10:35:50;8.00;;;2.95;;
47715;SDS011;33476;50.984;3.538;2024-02-21T10:38:16;10.27;;;3.15;;
47715;SDS011;33476;50.984;3.538;2024-02-21T10:40:41;6.97;;;2.95;;
47715;SDS011;33476;50.984;3.538;2024-02-21T10:43:09;10.27;;;2.85;;
47715;SDS011;33476;50.984;3.538;2024-02-21T10:45:37;6.97;;;3.37;;
47715;SDS011;33476;50.984;3.538;2024-02-21T10:48:16;8.45;;;3.05;;
47715;SDS011;33476;50.984;3.538;2024-02-21T10:51:08;6.85;;;2.72;;
47715;SDS011;33476;50.984;3.538;2024-02-21T10:56:16;7.10;;;2.83;;
47715;SDS011;33476;50.984;3.538;2024-02-21T10:58:49;5.82;;;2.35;;
47715;SDS011;33476;50.984;3.538;2024-02-21T11:01:15;5.07;;;2.70;;
47715;SDS011;33476;50.984;3.538;2024-02-21T11:03:43;5.68;;;3.22;;
47715;SDS011;33476;50.984;3.538;2024-02-21T11:06:13;7.50;;;2.85;;
47715;SDS011;33476;50.984;3.538;2024-02-21T11:08:39;7.30;;;3.00;;
47715;SDS011;33476;50.984;3.538;2024-02-21T11:11:05;11.35;;;3.38;;
47715;SDS011;33476;50.984;3.538;2024-02-21T11:13:31;7.78;;;3.30;;
47715;SDS011;33476;50.984;3.538;2024-02-21T11:16:08;5.80;;;2.38;;
47715;SDS011;33476;50.984;3.538;2024-02-21T11:18:36;4.43;;;2.00;;
47715;SDS011;33476;50.984;3.538;2024-02-21T11:21:04;9.07;;;3.50;;
47715;SDS011;33476;50.984;3.538;2024-02-21T11:23:30;8.15;;;2.97;;
47715;SDS011;33476;50.984;3.538;2024-02-21T11:26:17;5.90;;;3.03;;
47715;SDS011;33476;50.984;3.538;2024-02-21T11:28:55;7.25;;;3.08;;
47715;SDS011;33476;50.984;3.538;2024-02-21T11:31:22;7.03;;;2.80;;
47715;SDS011;33476;50.984;3.538;2024-02-21T11:33:47;7.53;;;2.58;;
47715;SDS011;33476;50.984;3.538;2024-02-21T11:36:23;8.48;;;2.78;;
47715;SDS011;33476;50.984;3.538;2024-02-21T11:38:50;4.85;;;2.22;;
47715;SDS011;33476;50.984;3.538;2024-02-21T11:41:16;8.38;;;3.55;;
47715;SDS011;33476;50.984;3.538;2024-02-21T11:43:41;6.75;;;2.28;;
47715;SDS011;33476;50.984;3.538;2024-02-21T11:46:07;8.23;;;2.40;;
47715;SDS011;33476;50.984;3.538;2024-02-21T11:48:32;4.72;;;2.45;;
47715;SDS011;33476;50.984;3.538;2024-02-21T11:50:57;8.73;;;3.08;;
47715;SDS011;33476;50.984;3.538;2024-02-21T11:53:23;6.78;;;2.70;;
47715;SDS011;33476;50.984;3.538;2024-02-21T11:55:49;5.45;;;2.38;;
47715;SDS011;33476;50.984;3.538;2024-02-21T11:58:15;8.95;;;3.10;;
47715;SDS011;33476;50.984;3.538;2024-02-21T12:00:41;3.85;;;2.38;;
47715;SDS011;33476;50.984;3.538;2024-02-21T12:03:07;6.93;;;2.70;;
47715;SDS011;33476;50.984;3.538;2024-02-21T12:05:32;3.85;;;2.28;;
47715;SDS011;33476;50.984;3.538;2024-02-21T12:07:58;7.07;;;2.40;;
47715;SDS011;33476;50.984;3.538;2024-02-21T12:10:24;7.07;;;2.80;;
47715;SDS011;33476;50.984;3.538;2024-02-21T12:12:52;7.00;;;2.90;;
47715;SDS011;33476;50.984;3.538;2024-02-21T12:15:19;7.25;;;2.63;;
47715;SDS011;33476;50.984;3.538;2024-02-21T12:17:45;5.10;;;2.63;;
47715;SDS011;33476;50.984;3.538;2024-02-21T12:20:10;8.23;;;2.70;;
47715;SDS011;33476;50.984;3.538;2024-02-21T12:22:36;6.40;;;2.92;;
47715;SDS011;33476;50.984;3.538;2024-02-21T12:25:24;6.35;;;2.53;;
47715;SDS011;33476;50.984;3.538;2024-02-21T12:27:51;5.35;;;2.40;;
47715;SDS011;33476;50.984;3.538;2024-02-21T12:30:17;6.88;;;2.72;;
47715;SDS011;33476;50.984;3.538;2024-02-21T12:32:42;4.95;;;2.17;;
47715;SDS011;33476;50.984;3.538;2024-02-21T12:35:07;9.23;;;2.70;;
47715;SDS011;33476;50.984;3.538;2024-02-21T12:37:33;5.97;;;2.42;;
47715;SDS011;33476;50.984;3.538;2024-02-21T12:39:58;7.05;;;2.75;;
47715;SDS011;33476;50.984;3.538;2024-02-21T12:42:24;8.13;;;2.45;;
47715;SDS011;33476;50.984;3.538;2024-02-21T12:44:51;6.43;;;2.88;;
47715;SDS011;33476;50.984;3.538;2024-02-21T12:47:17;6.07;;;2.30;;
47715;SDS011;33476;50.984;3.538;2024-02-21T12:49:44;7.40;;;2.08;;
47715;SDS011;33476;50.984;3.538;2024-02-21T12:52:10;5.28;;;2.15;;
47715;SDS011;33476;50.984;3.538;2024-02-21T12:54:36;5.80;;;2.03;;
47715;SDS011;33476;50.984;3.538;2024-02-21T12:57:01;8.10;;;2.17;;
47715;SDS011;33476;50.984;3.538;2024-02-21T12:59:28;4.13;;;2.10;;
47715;SDS011;33476;50.984;3.538;2024-02-21T13:01:54;4.05;;;2.33;;
47715;SDS011;33476;50.984;3.538;2024-02-21T13:04:19;8.30;;;2.00;;
47715;SDS011;33476;50.984;3.538;2024-02-21T13:06:46;5.78;;;2.10;;
47715;SDS011;33476;50.984;3.538;2024-02-21T13:09:12;5.88;;;2.20;;
47715;SDS011;33476;50.984;3.538;2024-02-21T13:11:38;6.25;;;2.30;;
47715;SDS011;33476;50.984;3.538;2024-02-21T13:14:05;4.30;;;2.40;;
47715;SDS011;33476;50.984;3.538;2024-02-21T13:16:30;7.32;;;1.98;;
47715;SDS011;33476;50.984;3.538;2024-02-21T13:18:56;4.35;;;2.00;;
47715;SDS011;33476;50.984;3.538;2024-02-21T13:21:21;3.67;;;1.83;;
47715;SDS011;33476;50.984;3.538;2024-02-21T13:23:47;5.53;;;1.85;;
47715;SDS011;33476;50.984;3.538;2024-02-21T13:26:12;7.88;;;2.20;;
47715;SDS011;33476;50.984;3.538;2024-02-21T13:28:39;3.30;;;1.70;;
47715;SDS011;33476;50.984;3.538;2024-02-21T13:31:04;5.30;;;2.05;;
47715;SDS011;33476;50.984;3.538;2024-02-21T13:33:29;7.50;;;2.33;;
47715;SDS011;33476;50.984;3.538;2024-02-21T13:35:55;5.63;;;2.03;;
47715;SDS011;33476;50.984;3.538;2024-02-21T13:38:20;5.00;;;2.92;;
47715;SDS011;33476;50.984;3.538;2024-02-21T13:40:46;9.02;;;2.83;;
47715;SDS011;33476;50.984;3.538;2024-02-21T13:43:11;4.13;;;2.47;;
47715;SDS011;33476;50.984;3.538;2024-02-21T13:45:37;5.97;;;2.65;;
47715;SDS011;33476;50.984;3.538;2024-02-21T13:48:03;5.95;;;2.80;;
47715;SDS011;33476;50.984;3.538;2024-02-21T13:50:31;5.57;;;2.78;;
47715;SDS011;33476;50.984;3.538;2024-02-21T13:52:57;6.70;;;2.30;;
47715;SDS011;33476;50.984;3.538;2024-02-21T13:55:23;8.88;;;2.78;;
47715;SDS011;33476;50.984;3.538;2024-02-21T13:57:51;7.10;;;3.03;;
47715;SDS011;33476;50.984;3.538;2024-02-21T14:00:16;7.05;;;3.17;;
47715;SDS011;33476;50.984;3.538;2024-02-21T14:02:43;7.32;;;3.50;;
47715;SDS011;33476;50.984;3.538;2024-02-21T14:05:09;9.60;;;3.45;;
47715;SDS011;33476;50.984;3.538;2024-02-21T14:07:34;9.85;;;3.05;;
47715;SDS011;33476;50.984;3.538;2024-02-21T14:10:00;5.32;;;3.05;;
47715;SDS011;33476;50.984;3.538;2024-02-21T14:12:25;6.30;;;2.97;;
47715;SDS011;33476;50.984;3.538;2024-02-21T14:14:50;4.40;;;2.97;;
47715;SDS011;33476;50.984;3.538;2024-02-21T14:17:16;6.90;;;2.80;;
47715;SDS011;33476;50.984;3.538;2024-02-21T14:19:42;7.65;;;2.50;;
47715;SDS011;33476;50.984;3.538;2024-02-21T14:22:08;6.53;;;2.70;;
47715;SDS011;33476;50.984;3.538;2024-02-21T14:24:33;6.28;;;2.85;;
47715;SDS011;33476;50.984;3.538;2024-02-21T14:26:58;10.45;;;3.30;;
47715;SDS011;33476;50.984;3.538;2024-02-21T14:29:24;7.57;;;3.00;;
47715;SDS011;33476;50.984;3.538;2024-02-21T14:31:50;7.50;;;2.70;;
47715;SDS011;33476;50.984;3.538;2024-02-21T14:34:15;7.72;;;2.78;;
47715;SDS011;33476;50.984;3.538;2024-02-21T14:36:41;5.18;;;2.60;;
47715;SDS011;33476;50.984;3.538;2024-02-21T14:39:06;5.47;;;2.78;;
47715;SDS011;33476;50.984;3.538;2024-02-21T14:41:32;8.85;;;3.03;;
47715;SDS011;33476;50.984;3.538;2024-02-21T14:44:00;7.40;;;2.92;;